sensor_id;sensor_type;location;lat;lon;timestamp;P1;durP1;ratioP1;P2;durP2;ratioP2
68821;SDS011;55834;50.870;4.606;2023-03-05T00:01:56;2.37;;;1.83;;
68821;SDS011;55834;50.870;4.606;2023-03-05T00:04:22;3.50;;;2.03;;
68821;SDS011;55834;50.870;4.606;2023-03-05T00:06:47;3.65;;;1.75;;
68821;SDS011;55834;50.870;4.606;2023-03-05T00:09:13;2.88;;;1.83;;
68821;SDS011;55834;50.870;4.606;2023-03-05T00:11:38;2.05;;;1.60;;
68821;SDS011;55834;50.870;4.606;2023-03-05T00:14:04;4.45;;;2.22;;
68821;SDS011;55834;50.870;4.606;2023-03-05T00:16:32;3.00;;;1.80;;
68821;SDS011;55834;50.870;4.606;2023-03-05T00:18:58;3.53;;;2.10;;
68821;SDS011;55834;50.870;4.606;2023-03-05T00:23:53;3.67;;;1.85;;
68821;SDS011;55834;50.870;4.606;2023-03-05T00:26:20;4.28;;;2.00;;
68821;SDS011;55834;50.870;4.606;2023-03-05T00:28:47;4.22;;;2.20;;
68821;SDS011;55834;50.870;4.606;2023-03-05T00:31:17;2.05;;;1.75;;
68821;SDS011;55834;50.870;4.606;2023-03-05T00:33:44;2.90;;;1.90;;
68821;SDS011;55834;50.870;4.606;2023-03-05T00:36:10;2.42;;;2.13;;
68821;SDS011;55834;50.870;4.606;2023-03-05T00:38:35;3.85;;;1.95;;
68821;SDS011;55834;50.870;4.606;2023-03-05T00:41:01;3.75;;;1.67;;
68821;SDS011;55834;50.870;4.606;2023-03-05T00:43:28;4.68;;;1.85;;
68821;SDS011;55834;50.870;4.606;2023-03-05T00:45:54;2.85;;;2.10;;
68821;SDS011;55834;50.870;4.606;2023-03-05T00:48:19;2.35;;;1.50;;
68821;SDS011;55834;50.870;4.606;2023-03-05T00:50:46;2.72;;;1.88;;
68821;SDS011;55834;50.870;4.606;2023-03-05T00:53:12;1.85;;;1.50;;
68821;SDS011;55834;50.870;4.606;2023-03-05T00:55:37;2.17;;;1.87;;
68821;SDS011;55834;50.870;4.606;2023-03-05T00:58:02;3.93;;;2.40;;
68821;SDS011;55834;50.870;4.606;2023-03-05T01:00:28;3.60;;;2.10;;
68821;SDS011;55834;50.870;4.606;2023-03-05T01:02:53;5.10;;;2.22;;
68821;SDS011;55834;50.870;4.606;2023-03-05T01:05:18;3.60;;;1.93;;
68821;SDS011;55834;50.870;4.606;2023-03-05T01:07:44;5.13;;;2.22;;
68821;SDS011;55834;50.870;4.606;2023-03-05T01:10:09;3.30;;;1.77;;
68821;SDS011;55834;50.870;4.606;2023-03-05T01:12:36;6.47;;;2.70;;
68821;SDS011;55834;50.870;4.606;2023-03-05T01:15:03;3.53;;;2.05;;
68821;SDS011;55834;50.870;4.606;2023-03-05T01:17:29;3.28;;;2.08;;
68821;SDS011;55834;50.870;4.606;2023-03-05T01:19:54;3.43;;;2.20;;
68821;SDS011;55834;50.870;4.606;2023-03-05T01:22:19;3.80;;;1.90;;
68821;SDS011;55834;50.870;4.606;2023-03-05T01:24:45;4.53;;;2.80;;
68821;SDS011;55834;50.870;4.606;2023-03-05T01:27:10;6.13;;;3.67;;
68821;SDS011;55834;50.870;4.606;2023-03-05T01:29:35;7.23;;;3.30;;
68821;SDS011;55834;50.870;4.606;2023-03-05T01:32:01;7.63;;;3.53;;
68821;SDS011;55834;50.870;4.606;2023-03-05T01:34:27;8.00;;;3.67;;
68821;SDS011;55834;50.870;4.606;2023-03-05T01:36:53;6.10;;;2.22;;
68821;SDS011;55834;50.870;4.606;2023-03-05T01:39:18;4.43;;;2.50;;
68821;SDS011;55834;50.870;4.606;2023-03-05T01:41:43;5.53;;;2.97;;
68821;SDS011;55834;50.870;4.606;2023-03-05T01:44:19;5.57;;;2.40;;
68821;SDS011;55834;50.870;4.606;2023-03-05T01:46:46;5.65;;;3.10;;
68821;SDS011;55834;50.870;4.606;2023-03-05T01:54:39;5.68;;;2.55;;
68821;SDS011;55834;50.870;4.606;2023-03-05T01:57:09;7.53;;;3.33;;
68821;SDS011;55834;50.870;4.606;2023-03-05T01:59:38;9.07;;;2.70;;
68821;SDS011;55834;50.870;4.606;2023-03-05T02:02:05;3.85;;;3.17;;
68821;SDS011;55834;50.870;4.606;2023-03-05T02:04:48;3.65;;;2.50;;
68821;SDS011;55834;50.870;4.606;2023-03-05T02:07:16;5.78;;;2.67;;
68821;SDS011;55834;50.870;4.606;2023-03-05T02:09:42;4.30;;;2.85;;
68821;SDS011;55834;50.870;4.606;2023-03-05T02:12:08;2.75;;;1.90;;
68821;SDS011;55834;50.870;4.606;2023-03-05T02:14:35;2.92;;;1.80;;
68821;SDS011;55834;50.870;4.606;2023-03-05T02:17:02;4.85;;;2.33;;
68821;SDS011;55834;50.870;4.606;2023-03-05T02:19:27;7.38;;;3.88;;
68821;SDS011;55834;50.870;4.606;2023-03-05T02:21:53;4.10;;;2.97;;
68821;SDS011;55834;50.870;4.606;2023-03-05T02:24:31;4.38;;;2.30;;
68821;SDS011;55834;50.870;4.606;2023-03-05T02:27:01;5.03;;;2.63;;
68821;SDS011;55834;50.870;4.606;2023-03-05T02:29:27;5.28;;;3.08;;
68821;SDS011;55834;50.870;4.606;2023-03-05T02:31:55;4.75;;;2.72;;
68821;SDS011;55834;50.870;4.606;2023-03-05T02:34:21;3.92;;;2.72;;
68821;SDS011;55834;50.870;4.606;2023-03-05T02:36:47;5.40;;;2.67;;
68821;SDS011;55834;50.870;4.606;2023-03-05T02:39:14;4.25;;;2.75;;
68821;SDS011;55834;50.870;4.606;2023-03-05T02:41:40;6.53;;;2.60;;
68821;SDS011;55834;50.870;4.606;2023-03-05T02:44:05;7.43;;;2.93;;
68821;SDS011;55834;50.870;4.606;2023-03-05T02:46:31;5.50;;;3.07;;
68821;SDS011;55834;50.870;4.606;2023-03-05T02:48:56;4.95;;;2.85;;
68821;SDS011;55834;50.870;4.606;2023-03-05T02:51:21;8.37;;;3.10;;
68821;SDS011;55834;50.870;4.606;2023-03-05T02:53:47;7.10;;;3.43;;
68821;SDS011;55834;50.870;4.606;2023-03-05T02:56:12;4.10;;;2.80;;
68821;SDS011;55834;50.870;4.606;2023-03-05T02:58:38;4.78;;;3.17;;
68821;SDS011;55834;50.870;4.606;2023-03-05T03:01:03;5.67;;;3.00;;
68821;SDS011;55834;50.870;4.606;2023-03-05T03:03:29;6.20;;;3.28;;
68821;SDS011;55834;50.870;4.606;2023-03-05T03:05:55;6.32;;;2.70;;
68821;SDS011;55834;50.870;4.606;2023-03-05T03:08:20;11.37;;;4.27;;
68821;SDS011;55834;50.870;4.606;2023-03-05T03:10:45;6.32;;;2.80;;
68821;SDS011;55834;50.870;4.606;2023-03-05T03:13:11;6.33;;;3.10;;
68821;SDS011;55834;50.870;4.606;2023-03-05T03:15:36;4.43;;;3.30;;
68821;SDS011;55834;50.870;4.606;2023-03-05T03:18:03;8.02;;;5.30;;
68821;SDS011;55834;50.870;4.606;2023-03-05T03:20:28;6.35;;;3.78;;
68821;SDS011;55834;50.870;4.606;2023-03-05T03:22:54;4.45;;;3.15;;
68821;SDS011;55834;50.870;4.606;2023-03-05T03:25:20;5.68;;;3.83;;
68821;SDS011;55834;50.870;4.606;2023-03-05T03:30:12;5.97;;;3.47;;
68821;SDS011;55834;50.870;4.606;2023-03-05T03:32:39;8.73;;;3.70;;
68821;SDS011;55834;50.870;4.606;2023-03-05T03:35:05;23.15;;;5.75;;
68821;SDS011;55834;50.870;4.606;2023-03-05T03:37:31;7.38;;;3.00;;
68821;SDS011;55834;50.870;4.606;2023-03-05T03:39:57;6.85;;;2.72;;
68821;SDS011;55834;50.870;4.606;2023-03-05T03:42:22;6.53;;;3.38;;
68821;SDS011;55834;50.870;4.606;2023-03-05T03:44:48;8.18;;;3.35;;
68821;SDS011;55834;50.870;4.606;2023-03-05T03:47:14;4.93;;;2.60;;
68821;SDS011;55834;50.870;4.606;2023-03-05T03:49:40;6.35;;;2.83;;
68821;SDS011;55834;50.870;4.606;2023-03-05T03:52:06;6.88;;;3.00;;
68821;SDS011;55834;50.870;4.606;2023-03-05T03:54:31;5.97;;;2.93;;
68821;SDS011;55834;50.870;4.606;2023-03-05T03:56:56;8.40;;;3.25;;
68821;SDS011;55834;50.870;4.606;2023-03-05T03:59:22;6.72;;;3.58;;
68821;SDS011;55834;50.870;4.606;2023-03-05T04:01:47;7.05;;;3.28;;
68821;SDS011;55834;50.870;4.606;2023-03-05T04:04:13;3.43;;;2.73;;
68821;SDS011;55834;50.870;4.606;2023-03-05T04:06:39;3.22;;;2.38;;
68821;SDS011;55834;50.870;4.606;2023-03-05T04:09:04;5.10;;;2.47;;
68821;SDS011;55834;50.870;4.606;2023-03-05T04:11:32;3.33;;;2.10;;
68821;SDS011;55834;50.870;4.606;2023-03-05T04:13:58;5.55;;;2.55;;
68821;SDS011;55834;50.870;4.606;2023-03-05T04:16:24;5.05;;;2.60;;
68821;SDS011;55834;50.870;4.606;2023-03-05T04:18:49;6.33;;;2.40;;
68821;SDS011;55834;50.870;4.606;2023-03-05T04:21:14;6.70;;;3.43;;
68821;SDS011;55834;50.870;4.606;2023-03-05T04:23:40;3.07;;;2.17;;
68821;SDS011;55834;50.870;4.606;2023-03-05T04:26:05;2.75;;;2.30;;
68821;SDS011;55834;50.870;4.606;2023-03-05T04:28:31;4.95;;;2.58;;
68821;SDS011;55834;50.870;4.606;2023-03-05T04:30:57;2.97;;;2.40;;
68821;SDS011;55834;50.870;4.606;2023-03-05T04:33:22;3.83;;;2.13;;
68821;SDS011;55834;50.870;4.606;2023-03-05T04:35:49;4.13;;;1.90;;
68821;SDS011;55834;50.870;4.606;2023-03-05T04:38:16;3.97;;;1.90;;
68821;SDS011;55834;50.870;4.606;2023-03-05T04:40:41;6.10;;;2.13;;
68821;SDS011;55834;50.870;4.606;2023-03-05T04:43:07;4.40;;;2.50;;
68821;SDS011;55834;50.870;4.606;2023-03-05T04:45:32;4.72;;;1.58;;
68821;SDS011;55834;50.870;4.606;2023-03-05T04:47:58;4.30;;;2.45;;
68821;SDS011;55834;50.870;4.606;2023-03-05T04:50:24;3.38;;;2.17;;
68821;SDS011;55834;50.870;4.606;2023-03-05T04:52:50;7.43;;;2.08;;
68821;SDS011;55834;50.870;4.606;2023-03-05T04:55:15;3.40;;;1.80;;
68821;SDS011;55834;50.870;4.606;2023-03-05T04:57:41;5.43;;;2.83;;
68821;SDS011;55834;50.870;4.606;2023-03-05T05:00:08;4.72;;;1.95;;
68821;SDS011;55834;50.870;4.606;2023-03-05T05:02:38;5.43;;;2.30;;
68821;SDS011;55834;50.870;4.606;2023-03-05T05:05:08;9.43;;;2.90;;
68821;SDS011;55834;50.870;4.606;2023-03-05T05:07:34;7.47;;;3.33;;
68821;SDS011;55834;50.870;4.606;2023-03-05T05:10:00;4.27;;;2.20;;
68821;SDS011;55834;50.870;4.606;2023-03-05T05:12:27;6.30;;;2.37;;
68821;SDS011;55834;50.870;4.606;2023-03-05T05:14:53;4.78;;;2.33;;
68821;SDS011;55834;50.870;4.606;2023-03-05T05:17:19;6.15;;;2.47;;
68821;SDS011;55834;50.870;4.606;2023-03-05T05:19:44;5.03;;;2.67;;
68821;SDS011;55834;50.870;4.606;2023-03-05T05:22:10;3.93;;;2.70;;
68821;SDS011;55834;50.870;4.606;2023-03-05T05:24:35;4.50;;;2.63;;
68821;SDS011;55834;50.870;4.606;2023-03-05T05:27:00;5.20;;;2.50;;
68821;SDS011;55834;50.870;4.606;2023-03-05T05:29:26;3.90;;;2.50;;
68821;SDS011;55834;50.870;4.606;2023-03-05T05:31:51;6.67;;;2.87;;
68821;SDS011;55834;50.870;4.606;2023-03-05T05:34:18;5.20;;;2.28;;
68821;SDS011;55834;50.870;4.606;2023-03-05T05:36:43;5.07;;;2.90;;
68821;SDS011;55834;50.870;4.606;2023-03-05T05:39:08;6.43;;;2.40;;
68821;SDS011;55834;50.870;4.606;2023-03-05T05:41:35;7.75;;;3.78;;
68821;SDS011;55834;50.870;4.606;2023-03-05T05:44:00;4.70;;;2.50;;
68821;SDS011;55834;50.870;4.606;2023-03-05T05:46:25;11.63;;;4.67;;
68821;SDS011;55834;50.870;4.606;2023-03-05T05:48:51;3.60;;;3.10;;
68821;SDS011;55834;50.870;4.606;2023-03-05T05:51:18;5.40;;;2.63;;
68821;SDS011;55834;50.870;4.606;2023-03-05T05:53:45;6.00;;;3.17;;
68821;SDS011;55834;50.870;4.606;2023-03-05T05:56:11;4.50;;;2.38;;
68821;SDS011;55834;50.870;4.606;2023-03-05T05:58:38;6.53;;;2.95;;
68821;SDS011;55834;50.870;4.606;2023-03-05T06:03:56;6.50;;;2.63;;
68821;SDS011;55834;50.870;4.606;2023-03-05T06:06:23;4.88;;;2.33;;
68821;SDS011;55834;50.870;4.606;2023-03-05T06:08:50;6.88;;;2.97;;
68821;SDS011;55834;50.870;4.606;2023-03-05T06:11:16;4.50;;;3.00;;
68821;SDS011;55834;50.870;4.606;2023-03-05T06:13:42;5.78;;;3.00;;
68821;SDS011;55834;50.870;4.606;2023-03-05T06:16:09;4.37;;;2.70;;
68821;SDS011;55834;50.870;4.606;2023-03-05T06:18:36;7.18;;;3.40;;
68821;SDS011;55834;50.870;4.606;2023-03-05T06:21:05;4.60;;;2.20;;
68821;SDS011;55834;50.870;4.606;2023-03-05T06:23:31;3.75;;;2.25;;
68821;SDS011;55834;50.870;4.606;2023-03-05T06:25:58;4.65;;;2.83;;
68821;SDS011;55834;50.870;4.606;2023-03-05T06:28:24;8.45;;;4.05;;
68821;SDS011;55834;50.870;4.606;2023-03-05T06:30:50;6.83;;;3.10;;
68821;SDS011;55834;50.870;4.606;2023-03-05T06:33:22;6.03;;;3.00;;
68821;SDS011;55834;50.870;4.606;2023-03-05T06:35:49;4.53;;;2.53;;
68821;SDS011;55834;50.870;4.606;2023-03-05T06:38:14;6.10;;;2.73;;
68821;SDS011;55834;50.870;4.606;2023-03-05T06:40:39;4.87;;;2.63;;
68821;SDS011;55834;50.870;4.606;2023-03-05T06:43:05;6.07;;;3.40;;
68821;SDS011;55834;50.870;4.606;2023-03-05T06:45:30;5.50;;;3.17;;
68821;SDS011;55834;50.870;4.606;2023-03-05T06:47:55;3.37;;;2.30;;
68821;SDS011;55834;50.870;4.606;2023-03-05T06:50:22;6.00;;;3.13;;
68821;SDS011;55834;50.870;4.606;2023-03-05T06:52:48;8.00;;;3.63;;
68821;SDS011;55834;50.870;4.606;2023-03-05T06:55:13;6.00;;;3.28;;
68821;SDS011;55834;50.870;4.606;2023-03-05T06:57:39;6.38;;;3.90;;
68821;SDS011;55834;50.870;4.606;2023-03-05T07:00:04;4.50;;;2.83;;
68821;SDS011;55834;50.870;4.606;2023-03-05T07:02:35;6.45;;;3.95;;
68821;SDS011;55834;50.870;4.606;2023-03-05T07:05:01;5.15;;;3.40;;
68821;SDS011;55834;50.870;4.606;2023-03-05T07:07:28;8.35;;;3.47;;
68821;SDS011;55834;50.870;4.606;2023-03-05T07:09:53;6.23;;;4.20;;
68821;SDS011;55834;50.870;4.606;2023-03-05T07:12:19;8.07;;;4.67;;
68821;SDS011;55834;50.870;4.606;2023-03-05T07:14:44;10.30;;;5.70;;
68821;SDS011;55834;50.870;4.606;2023-03-05T07:17:09;5.93;;;3.40;;
68821;SDS011;55834;50.870;4.606;2023-03-05T07:19:35;6.03;;;3.87;;
68821;SDS011;55834;50.870;4.606;2023-03-05T07:22:01;6.78;;;4.10;;
68821;SDS011;55834;50.870;4.606;2023-03-05T07:24:27;7.53;;;4.20;;
68821;SDS011;55834;50.870;4.606;2023-03-05T07:26:57;8.80;;;4.82;;
68821;SDS011;55834;50.870;4.606;2023-03-05T07:29:23;8.00;;;3.97;;
68821;SDS011;55834;50.870;4.606;2023-03-05T07:34:17;5.90;;;3.30;;
68821;SDS011;55834;50.870;4.606;2023-03-05T07:36:42;5.25;;;3.25;;
68821;SDS011;55834;50.870;4.606;2023-03-05T07:39:09;6.13;;;3.78;;
68821;SDS011;55834;50.870;4.606;2023-03-05T07:41:35;5.70;;;3.50;;
68821;SDS011;55834;50.870;4.606;2023-03-05T07:44:01;3.87;;;3.03;;
68821;SDS011;55834;50.870;4.606;2023-03-05T07:46:27;8.48;;;3.70;;
68821;SDS011;55834;50.870;4.606;2023-03-05T07:48:54;5.38;;;3.30;;
68821;SDS011;55834;50.870;4.606;2023-03-05T07:51:20;4.95;;;3.17;;
68821;SDS011;55834;50.870;4.606;2023-03-05T07:53:47;4.00;;;2.92;;
68821;SDS011;55834;50.870;4.606;2023-03-05T07:56:21;6.95;;;3.42;;
68821;SDS011;55834;50.870;4.606;2023-03-05T07:59:01;6.88;;;3.42;;
68821;SDS011;55834;50.870;4.606;2023-03-05T08:01:54;6.00;;;3.20;;
68821;SDS011;55834;50.870;4.606;2023-03-05T08:04:19;7.22;;;3.42;;
68821;SDS011;55834;50.870;4.606;2023-03-05T08:06:45;4.63;;;3.33;;
68821;SDS011;55834;50.870;4.606;2023-03-05T08:09:11;5.93;;;3.22;;
68821;SDS011;55834;50.870;4.606;2023-03-05T08:11:37;5.30;;;2.38;;
68821;SDS011;55834;50.870;4.606;2023-03-05T08:14:04;6.32;;;3.33;;
68821;SDS011;55834;50.870;4.606;2023-03-05T08:16:29;5.37;;;3.33;;
68821;SDS011;55834;50.870;4.606;2023-03-05T08:18:55;3.17;;;2.42;;
68821;SDS011;55834;50.870;4.606;2023-03-05T08:21:26;5.55;;;4.03;;
68821;SDS011;55834;50.870;4.606;2023-03-05T08:23:54;5.32;;;2.65;;
68821;SDS011;55834;50.870;4.606;2023-03-05T08:26:20;5.07;;;2.97;;
68821;SDS011;55834;50.870;4.606;2023-03-05T08:28:47;5.45;;;2.80;;
68821;SDS011;55834;50.870;4.606;2023-03-05T08:31:14;3.20;;;2.40;;
68821;SDS011;55834;50.870;4.606;2023-03-05T08:33:41;3.97;;;3.00;;
68821;SDS011;55834;50.870;4.606;2023-03-05T08:36:07;5.05;;;2.78;;
68821;SDS011;55834;50.870;4.606;2023-03-05T08:38:33;4.00;;;2.35;;
68821;SDS011;55834;50.870;4.606;2023-03-05T08:40:59;3.72;;;2.67;;
68821;SDS011;55834;50.870;4.606;2023-03-05T08:43:27;4.22;;;2.72;;
68821;SDS011;55834;50.870;4.606;2023-03-05T08:45:53;4.40;;;2.47;;
68821;SDS011;55834;50.870;4.606;2023-03-05T08:48:19;4.57;;;3.13;;
68821;SDS011;55834;50.870;4.606;2023-03-05T08:50:45;4.43;;;3.08;;
68821;SDS011;55834;50.870;4.606;2023-03-05T08:53:11;5.50;;;3.10;;
68821;SDS011;55834;50.870;4.606;2023-03-05T08:55:36;4.00;;;2.78;;
68821;SDS011;55834;50.870;4.606;2023-03-05T08:58:02;5.80;;;2.15;;
68821;SDS011;55834;50.870;4.606;2023-03-05T09:00:28;3.63;;;2.75;;
68821;SDS011;55834;50.870;4.606;2023-03-05T09:02:53;3.63;;;2.40;;
68821;SDS011;55834;50.870;4.606;2023-03-05T09:05:22;3.80;;;2.57;;
68821;SDS011;55834;50.870;4.606;2023-03-05T09:07:47;3.13;;;2.70;;
68821;SDS011;55834;50.870;4.606;2023-03-05T09:10:13;3.55;;;2.40;;
68821;SDS011;55834;50.870;4.606;2023-03-05T09:12:39;5.53;;;2.55;;
68821;SDS011;55834;50.870;4.606;2023-03-05T09:15:06;3.03;;;2.28;;
68821;SDS011;55834;50.870;4.606;2023-03-05T09:17:36;4.07;;;2.80;;
68821;SDS011;55834;50.870;4.606;2023-03-05T09:20:03;3.55;;;2.72;;
68821;SDS011;55834;50.870;4.606;2023-03-05T09:22:30;4.53;;;2.25;;
68821;SDS011;55834;50.870;4.606;2023-03-05T09:24:55;3.83;;;2.83;;
68821;SDS011;55834;50.870;4.606;2023-03-05T09:27:21;5.80;;;3.70;;
68821;SDS011;55834;50.870;4.606;2023-03-05T09:29:46;4.68;;;2.90;;
68821;SDS011;55834;50.870;4.606;2023-03-05T09:32:12;5.90;;;3.92;;
68821;SDS011;55834;50.870;4.606;2023-03-05T09:34:37;6.50;;;3.97;;
68821;SDS011;55834;50.870;4.606;2023-03-05T09:37:03;7.90;;;5.38;;
68821;SDS011;55834;50.870;4.606;2023-03-05T09:39:28;8.20;;;4.20;;
68821;SDS011;55834;50.870;4.606;2023-03-05T09:50:09;7.07;;;5.30;;
68821;SDS011;55834;50.870;4.606;2023-03-05T09:52:54;5.18;;;4.05;;
68821;SDS011;55834;50.870;4.606;2023-03-05T09:58:05;4.63;;;3.50;;
68821;SDS011;55834;50.870;4.606;2023-03-05T10:03:15;5.10;;;3.15;;
68821;SDS011;55834;50.870;4.606;2023-03-05T10:05:59;5.18;;;3.33;;
68821;SDS011;55834;50.870;4.606;2023-03-05T10:08:55;2.65;;;2.35;;
68821;SDS011;55834;50.870;4.606;2023-03-05T10:14:02;4.97;;;3.20;;
68821;SDS011;55834;50.870;4.606;2023-03-05T10:19:21;2.85;;;2.50;;
68821;SDS011;55834;50.870;4.606;2023-03-05T10:22:20;4.18;;;2.47;;
68821;SDS011;55834;50.870;4.606;2023-03-05T10:44:20;1.88;;;1.73;;
68821;SDS011;55834;50.870;4.606;2023-03-05T10:47:14;2.17;;;1.90;;
68821;SDS011;55834;50.870;4.606;2023-03-05T10:49:50;3.17;;;1.77;;
68821;SDS011;55834;50.870;4.606;2023-03-05T10:52:21;1.65;;;1.55;;
68821;SDS011;55834;50.870;4.606;2023-03-05T10:55:14;1.77;;;1.50;;
68821;SDS011;55834;50.870;4.606;2023-03-05T10:57:41;2.30;;;1.60;;
68821;SDS011;55834;50.870;4.606;2023-03-05T11:03:14;2.50;;;1.30;;
68821;SDS011;55834;50.870;4.606;2023-03-05T11:13:27;4.70;;;2.85;;
68821;SDS011;55834;50.870;4.606;2023-03-05T11:16:00;7.63;;;5.90;;
68821;SDS011;55834;50.870;4.606;2023-03-05T11:18:27;3.70;;;2.53;;
68821;SDS011;55834;50.870;4.606;2023-03-05T11:23:34;2.72;;;1.88;;
68821;SDS011;55834;50.870;4.606;2023-03-05T11:28:32;10.25;;;9.32;;
68821;SDS011;55834;50.870;4.606;2023-03-05T11:31:01;4.45;;;3.88;;
68821;SDS011;55834;50.870;4.606;2023-03-05T11:33:31;2.72;;;1.40;;
68821;SDS011;55834;50.870;4.606;2023-03-05T11:38:45;3.85;;;3.40;;
68821;SDS011;55834;50.870;4.606;2023-03-05T11:41:16;4.70;;;4.28;;
68821;SDS011;55834;50.870;4.606;2023-03-05T11:43:47;3.42;;;2.63;;
68821;SDS011;55834;50.870;4.606;2023-03-05T11:46:15;2.28;;;1.10;;
68821;SDS011;55834;50.870;4.606;2023-03-05T11:48:43;3.88;;;1.23;;
68821;SDS011;55834;50.870;4.606;2023-03-05T11:53:45;6.80;;;2.55;;
68821;SDS011;55834;50.870;4.606;2023-03-05T11:56:17;1.30;;;0.77;;
68821;SDS011;55834;50.870;4.606;2023-03-05T12:01:16;1.30;;;1.07;;
68821;SDS011;55834;50.870;4.606;2023-03-05T12:03:44;2.17;;;0.90;;
68821;SDS011;55834;50.870;4.606;2023-03-05T12:08:43;1.83;;;1.40;;
68821;SDS011;55834;50.870;4.606;2023-03-05T12:11:20;2.63;;;1.10;;
68821;SDS011;55834;50.870;4.606;2023-03-05T12:13:55;2.13;;;0.82;;
68821;SDS011;55834;50.870;4.606;2023-03-05T12:16:38;3.05;;;0.95;;
68821;SDS011;55834;50.870;4.606;2023-03-05T12:19:25;1.55;;;1.00;;
68821;SDS011;55834;50.870;4.606;2023-03-05T12:21:56;2.22;;;0.70;;
68821;SDS011;55834;50.870;4.606;2023-03-05T12:26:55;2.70;;;1.30;;
68821;SDS011;55834;50.870;4.606;2023-03-05T12:32:51;3.65;;;1.80;;
68821;SDS011;55834;50.870;4.606;2023-03-05T12:42:53;2.20;;;1.38;;
68821;SDS011;55834;50.870;4.606;2023-03-05T12:52:56;2.25;;;2.05;;
68821;SDS011;55834;50.870;4.606;2023-03-05T12:55:28;2.90;;;2.58;;
68821;SDS011;55834;50.870;4.606;2023-03-05T12:58:19;4.53;;;1.95;;
68821;SDS011;55834;50.870;4.606;2023-03-05T13:03:30;3.27;;;2.70;;
68821;SDS011;55834;50.870;4.606;2023-03-05T13:06:00;5.00;;;3.22;;
68821;SDS011;55834;50.870;4.606;2023-03-05T13:08:31;5.40;;;3.67;;
68821;SDS011;55834;50.870;4.606;2023-03-05T13:13:45;6.43;;;5.30;;
68821;SDS011;55834;50.870;4.606;2023-03-05T13:16:44;7.43;;;5.13;;
68821;SDS011;55834;50.870;4.606;2023-03-05T13:19:11;5.85;;;4.40;;
68821;SDS011;55834;50.870;4.606;2023-03-05T13:21:41;8.18;;;4.93;;
68821;SDS011;55834;50.870;4.606;2023-03-05T13:24:14;5.25;;;4.38;;
68821;SDS011;55834;50.870;4.606;2023-03-05T13:26:40;3.95;;;3.10;;
68821;SDS011;55834;50.870;4.606;2023-03-05T13:34:22;4.88;;;3.75;;
68821;SDS011;55834;50.870;4.606;2023-03-05T13:39:43;5.15;;;3.53;;
68821;SDS011;55834;50.870;4.606;2023-03-05T13:42:17;5.70;;;3.60;;
68821;SDS011;55834;50.870;4.606;2023-03-05T13:44:55;6.32;;;4.15;;
68821;SDS011;55834;50.870;4.606;2023-03-05T13:47:25;6.60;;;4.38;;
68821;SDS011;55834;50.870;4.606;2023-03-05T13:50:04;4.45;;;3.83;;
68821;SDS011;55834;50.870;4.606;2023-03-05T13:52:33;5.00;;;3.75;;
68821;SDS011;55834;50.870;4.606;2023-03-05T13:55:00;5.43;;;3.72;;
68821;SDS011;55834;50.870;4.606;2023-03-05T13:57:39;5.53;;;3.63;;
68821;SDS011;55834;50.870;4.606;2023-03-05T14:00:24;4.43;;;3.60;;
68821;SDS011;55834;50.870;4.606;2023-03-05T14:03:10;2.47;;;2.22;;
68821;SDS011;55834;50.870;4.606;2023-03-05T14:05:42;2.78;;;1.90;;
68821;SDS011;55834;50.870;4.606;2023-03-05T14:10:42;3.58;;;1.55;;
68821;SDS011;55834;50.870;4.606;2023-03-05T14:13:12;2.70;;;1.93;;
68821;SDS011;55834;50.870;4.606;2023-03-05T14:15:42;3.30;;;1.83;;
68821;SDS011;55834;50.870;4.606;2023-03-05T14:20:36;2.80;;;1.63;;
68821;SDS011;55834;50.870;4.606;2023-03-05T14:23:23;3.53;;;2.83;;
68821;SDS011;55834;50.870;4.606;2023-03-05T14:29:20;7.38;;;3.92;;
68821;SDS011;55834;50.870;4.606;2023-03-05T14:31:58;8.93;;;7.20;;
68821;SDS011;55834;50.870;4.606;2023-03-05T14:34:30;8.77;;;6.03;;
68821;SDS011;55834;50.870;4.606;2023-03-05T14:37:00;6.93;;;5.45;;
68821;SDS011;55834;50.870;4.606;2023-03-05T14:39:33;4.25;;;2.92;;
68821;SDS011;55834;50.870;4.606;2023-03-05T14:45:13;3.45;;;2.30;;
68821;SDS011;55834;50.870;4.606;2023-03-05T14:47:50;3.03;;;1.70;;
68821;SDS011;55834;50.870;4.606;2023-03-05T14:50:21;2.60;;;1.80;;
68821;SDS011;55834;50.870;4.606;2023-03-05T14:52:50;2.45;;;1.25;;
68821;SDS011;55834;50.870;4.606;2023-03-05T14:55:22;1.35;;;0.90;;
68821;SDS011;55834;50.870;4.606;2023-03-05T14:57:50;2.92;;;1.58;;
68821;SDS011;55834;50.870;4.606;2023-03-05T15:00:20;3.33;;;1.20;;
68821;SDS011;55834;50.870;4.606;2023-03-05T15:02:47;1.77;;;1.20;;
68821;SDS011;55834;50.870;4.606;2023-03-05T15:05:13;1.17;;;1.05;;
68821;SDS011;55834;50.870;4.606;2023-03-05T15:07:40;1.83;;;1.10;;
68821;SDS011;55834;50.870;4.606;2023-03-05T15:10:06;1.70;;;1.55;;
68821;SDS011;55834;50.870;4.606;2023-03-05T15:12:32;1.70;;;1.17;;
68821;SDS011;55834;50.870;4.606;2023-03-05T15:15:01;2.42;;;1.20;;
68821;SDS011;55834;50.870;4.606;2023-03-05T15:20:04;1.92;;;1.20;;
68821;SDS011;55834;50.870;4.606;2023-03-05T15:22:33;4.18;;;1.60;;
68821;SDS011;55834;50.870;4.606;2023-03-05T15:24:58;2.65;;;1.98;;
68821;SDS011;55834;50.870;4.606;2023-03-05T15:27:24;3.35;;;1.63;;
68821;SDS011;55834;50.870;4.606;2023-03-05T15:29:49;1.97;;;1.20;;
68821;SDS011;55834;50.870;4.606;2023-03-05T15:32:14;3.20;;;1.90;;
68821;SDS011;55834;50.870;4.606;2023-03-05T15:34:40;2.03;;;1.48;;
68821;SDS011;55834;50.870;4.606;2023-03-05T15:37:05;2.50;;;1.77;;
68821;SDS011;55834;50.870;4.606;2023-03-05T15:39:31;1.70;;;1.60;;
68821;SDS011;55834;50.870;4.606;2023-03-05T15:41:56;5.07;;;3.23;;
68821;SDS011;55834;50.870;4.606;2023-03-05T15:44:22;4.05;;;2.20;;
68821;SDS011;55834;50.870;4.606;2023-03-05T15:46:48;5.28;;;2.47;;
68821;SDS011;55834;50.870;4.606;2023-03-05T15:49:13;3.58;;;2.00;;
68821;SDS011;55834;50.870;4.606;2023-03-05T15:51:39;3.35;;;1.90;;
68821;SDS011;55834;50.870;4.606;2023-03-05T15:54:05;2.60;;;1.70;;
68821;SDS011;55834;50.870;4.606;2023-03-05T15:56:31;4.00;;;2.42;;
68821;SDS011;55834;50.870;4.606;2023-03-05T15:58:57;2.75;;;2.08;;
68821;SDS011;55834;50.870;4.606;2023-03-05T16:01:22;2.65;;;1.60;;
68821;SDS011;55834;50.870;4.606;2023-03-05T16:03:48;3.20;;;2.40;;
68821;SDS011;55834;50.870;4.606;2023-03-05T16:06:14;4.75;;;2.78;;
68821;SDS011;55834;50.870;4.606;2023-03-05T16:08:46;3.80;;;2.20;;
68821;SDS011;55834;50.870;4.606;2023-03-05T16:11:14;5.15;;;2.58;;
68821;SDS011;55834;50.870;4.606;2023-03-05T16:13:40;3.47;;;2.33;;
68821;SDS011;55834;50.870;4.606;2023-03-05T16:16:06;3.92;;;2.60;;
68821;SDS011;55834;50.870;4.606;2023-03-05T16:18:33;4.32;;;3.45;;
68821;SDS011;55834;50.870;4.606;2023-03-05T16:21:03;4.72;;;3.55;;
68821;SDS011;55834;50.870;4.606;2023-03-05T16:23:28;4.97;;;4.00;;
68821;SDS011;55834;50.870;4.606;2023-03-05T16:25:53;4.90;;;3.00;;
68821;SDS011;55834;50.870;4.606;2023-03-05T16:28:19;5.20;;;2.83;;
68821;SDS011;55834;50.870;4.606;2023-03-05T16:30:44;4.13;;;3.10;;
68821;SDS011;55834;50.870;4.606;2023-03-05T16:33:17;2.70;;;2.50;;
68821;SDS011;55834;50.870;4.606;2023-03-05T16:35:42;2.40;;;1.77;;
68821;SDS011;55834;50.870;4.606;2023-03-05T16:38:07;3.60;;;2.03;;
68821;SDS011;55834;50.870;4.606;2023-03-05T16:40:35;3.73;;;3.10;;
68821;SDS011;55834;50.870;4.606;2023-03-05T16:43:02;6.05;;;3.00;;
68821;SDS011;55834;50.870;4.606;2023-03-05T16:45:27;3.80;;;2.65;;
68821;SDS011;55834;50.870;4.606;2023-03-05T16:47:52;5.87;;;3.77;;
68821;SDS011;55834;50.870;4.606;2023-03-05T16:50:18;4.87;;;3.40;;
68821;SDS011;55834;50.870;4.606;2023-03-05T16:52:43;3.33;;;2.95;;
68821;SDS011;55834;50.870;4.606;2023-03-05T16:55:09;5.53;;;3.17;;
68821;SDS011;55834;50.870;4.606;2023-03-05T16:57:38;5.28;;;2.80;;
68821;SDS011;55834;50.870;4.606;2023-03-05T17:00:04;5.20;;;3.30;;
68821;SDS011;55834;50.870;4.606;2023-03-05T17:02:31;6.63;;;3.25;;